sensor_id;sensor_type;location;lat;lon;timestamp;P1;durP1;ratioP1;P2;durP2;ratioP2
2173;SDS011;1093;51.424;11.764;2022-10-16T00:00:37;1.57;;;1.47;;
2173;SDS011;1093;51.424;11.764;2022-10-16T00:03:05;1.40;;;1.23;;
2173;SDS011;1093;51.424;11.764;2022-10-16T00:05:32;2.13;;;1.43;;
2173;SDS011;1093;51.424;11.764;2022-10-16T00:08:01;1.57;;;1.47;;
2173;SDS011;1093;51.424;11.764;2022-10-16T00:10:27;2.80;;;1.67;;
2173;SDS011;1093;51.424;11.764;2022-10-16T00:12:55;1.60;;;1.50;;
2173;SDS011;1093;51.424;11.764;2022-10-16T00:15:22;1.30;;;1.20;;
2173;SDS011;1093;51.424;11.764;2022-10-16T00:17:48;1.67;;;1.57;;
2173;SDS011;1093;51.424;11.764;2022-10-16T00:20:15;1.50;;;1.40;;
2173;SDS011;1093;51.424;11.764;2022-10-16T00:22:42;2.07;;;1.40;;
2173;SDS011;1093;51.424;11.764;2022-10-16T00:25:10;2.13;;;1.30;;
2173;SDS011;1093;51.424;11.764;2022-10-16T00:27:37;1.70;;;1.13;;
2173;SDS011;1093;51.424;11.764;2022-10-16T00:30:04;1.33;;;1.23;;
2173;SDS011;1093;51.424;11.764;2022-10-16T00:32:33;1.30;;;1.20;;
2173;SDS011;1093;51.424;11.764;2022-10-16T00:35:00;1.40;;;1.30;;
2173;SDS011;1093;51.424;11.764;2022-10-16T00:37:28;1.40;;;1.30;;
2173;SDS011;1093;51.424;11.764;2022-10-16T00:39:55;1.40;;;1.27;;
2173;SDS011;1093;51.424;11.764;2022-10-16T00:42:23;1.10;;;1.00;;
2173;SDS011;1093;51.424;11.764;2022-10-16T00:44:51;2.03;;;1.93;;
2173;SDS011;1093;51.424;11.764;2022-10-16T00:47:21;1.43;;;1.10;;
2173;SDS011;1093;51.424;11.764;2022-10-16T00:49:53;1.30;;;1.20;;
2173;SDS011;1093;51.424;11.764;2022-10-16T00:52:24;1.33;;;1.23;;
2173;SDS011;1093;51.424;11.764;2022-10-16T00:54:51;1.60;;;1.50;;
2173;SDS011;1093;51.424;11.764;2022-10-16T00:57:20;1.83;;;1.10;;
2173;SDS011;1093;51.424;11.764;2022-10-16T00:59:48;1.50;;;1.40;;
2173;SDS011;1093;51.424;11.764;2022-10-16T01:02:16;1.60;;;1.50;;
2173;SDS011;1093;51.424;11.764;2022-10-16T01:04:44;1.50;;;1.40;;
2173;SDS011;1093;51.424;11.764;2022-10-16T01:07:16;1.43;;;1.33;;
2173;SDS011;1093;51.424;11.764;2022-10-16T01:09:57;1.27;;;1.23;;
2173;SDS011;1093;51.424;11.764;2022-10-16T01:12:34;1.63;;;1.53;;
2173;SDS011;1093;51.424;11.764;2022-10-16T01:15:10;1.40;;;1.30;;
2173;SDS011;1093;51.424;11.764;2022-10-16T01:17:41;1.70;;;1.60;;
2173;SDS011;1093;51.424;11.764;2022-10-16T01:20:13;9.43;;;1.73;;
2173;SDS011;1093;51.424;11.764;2022-10-16T01:22:49;8.43;;;4.60;;
2173;SDS011;1093;51.424;11.764;2022-10-16T01:25:30;2.10;;;1.90;;
2173;SDS011;1093;51.424;11.764;2022-10-16T01:28:15;1.37;;;1.27;;
2173;SDS011;1093;51.424;11.764;2022-10-16T01:30:45;3.57;;;1.40;;
2173;SDS011;1093;51.424;11.764;2022-10-16T01:33:14;2.60;;;1.60;;
2173;SDS011;1093;51.424;11.764;2022-10-16T01:35:45;1.40;;;1.30;;
2173;SDS011;1093;51.424;11.764;2022-10-16T01:38:17;2.47;;;1.37;;
2173;SDS011;1093;51.424;11.764;2022-10-16T01:40:50;1.33;;;1.23;;
2173;SDS011;1093;51.424;11.764;2022-10-16T01:43:24;1.50;;;1.40;;
2173;SDS011;1093;51.424;11.764;2022-10-16T01:45:53;1.43;;;1.33;;
2173;SDS011;1093;51.424;11.764;2022-10-16T01:48:21;1.50;;;1.40;;
2173;SDS011;1093;51.424;11.764;2022-10-16T01:50:50;1.70;;;1.50;;
2173;SDS011;1093;51.424;11.764;2022-10-16T01:53:20;1.53;;;1.43;;
2173;SDS011;1093;51.424;11.764;2022-10-16T01:55:49;1.43;;;1.27;;
2173;SDS011;1093;51.424;11.764;2022-10-16T01:58:18;2.07;;;1.97;;
2173;SDS011;1093;51.424;11.764;2022-10-16T02:00:46;1.70;;;1.60;;
2173;SDS011;1093;51.424;11.764;2022-10-16T02:03:14;1.70;;;1.60;;
2173;SDS011;1093;51.424;11.764;2022-10-16T02:05:45;1.87;;;1.40;;
2173;SDS011;1093;51.424;11.764;2022-10-16T02:08:15;1.50;;;1.40;;
2173;SDS011;1093;51.424;11.764;2022-10-16T02:10:42;1.67;;;1.57;;
2173;SDS011;1093;51.424;11.764;2022-10-16T02:13:10;2.20;;;1.90;;
2173;SDS011;1093;51.424;11.764;2022-10-16T02:15:40;1.40;;;1.30;;
2173;SDS011;1093;51.424;11.764;2022-10-16T02:18:08;2.00;;;1.80;;
2173;SDS011;1093;51.424;11.764;2022-10-16T02:20:37;1.83;;;1.73;;
2173;SDS011;1093;51.424;11.764;2022-10-16T02:23:09;1.93;;;1.83;;
2173;SDS011;1093;51.424;11.764;2022-10-16T02:25:41;1.60;;;1.50;;
2173;SDS011;1093;51.424;11.764;2022-10-16T02:28:13;1.50;;;1.40;;
2173;SDS011;1093;51.424;11.764;2022-10-16T02:30:44;1.73;;;1.50;;
2173;SDS011;1093;51.424;11.764;2022-10-16T02:33:15;2.43;;;1.70;;
2173;SDS011;1093;51.424;11.764;2022-10-16T02:35:44;3.57;;;1.70;;
2173;SDS011;1093;51.424;11.764;2022-10-16T02:38:14;2.20;;;1.70;;
2173;SDS011;1093;51.424;11.764;2022-10-16T02:40:42;2.37;;;1.90;;
2173;SDS011;1093;51.424;11.764;2022-10-16T02:43:09;1.70;;;1.60;;
2173;SDS011;1093;51.424;11.764;2022-10-16T02:45:36;1.90;;;1.80;;
2173;SDS011;1093;51.424;11.764;2022-10-16T02:48:04;1.60;;;1.50;;
2173;SDS011;1093;51.424;11.764;2022-10-16T02:50:33;2.00;;;1.90;;
2173;SDS011;1093;51.424;11.764;2022-10-16T02:53:00;1.80;;;1.70;;
2173;SDS011;1093;51.424;11.764;2022-10-16T02:55:27;1.77;;;1.67;;
2173;SDS011;1093;51.424;11.764;2022-10-16T02:57:54;2.07;;;1.97;;
2173;SDS011;1093;51.424;11.764;2022-10-16T03:00:21;2.30;;;2.10;;
2173;SDS011;1093;51.424;11.764;2022-10-16T03:02:48;3.10;;;2.90;;
2173;SDS011;1093;51.424;11.764;2022-10-16T03:05:15;1.90;;;1.80;;
2173;SDS011;1093;51.424;11.764;2022-10-16T03:07:44;2.17;;;1.97;;
2173;SDS011;1093;51.424;11.764;2022-10-16T03:10:11;2.30;;;2.10;;
2173;SDS011;1093;51.424;11.764;2022-10-16T03:12:38;2.47;;;1.60;;
2173;SDS011;1093;51.424;11.764;2022-10-16T03:15:05;1.60;;;1.50;;
2173;SDS011;1093;51.424;11.764;2022-10-16T03:17:33;1.77;;;1.67;;
2173;SDS011;1093;51.424;11.764;2022-10-16T03:19:59;2.37;;;2.17;;
2173;SDS011;1093;51.424;11.764;2022-10-16T03:22:26;2.40;;;2.00;;
2173;SDS011;1093;51.424;11.764;2022-10-16T03:24:55;4.90;;;2.27;;
2173;SDS011;1093;51.424;11.764;2022-10-16T03:27:22;1.80;;;1.70;;
2173;SDS011;1093;51.424;11.764;2022-10-16T03:29:48;2.60;;;1.70;;
2173;SDS011;1093;51.424;11.764;2022-10-16T03:32:15;4.07;;;2.20;;
2173;SDS011;1093;51.424;11.764;2022-10-16T03:34:43;2.03;;;1.83;;
2173;SDS011;1093;51.424;11.764;2022-10-16T03:37:10;2.10;;;1.90;;
2173;SDS011;1093;51.424;11.764;2022-10-16T03:39:37;2.80;;;2.40;;
2173;SDS011;1093;51.424;11.764;2022-10-16T03:42:05;2.33;;;2.20;;
2173;SDS011;1093;51.424;11.764;2022-10-16T03:44:32;1.97;;;1.70;;
2173;SDS011;1093;51.424;11.764;2022-10-16T03:46:58;2.70;;;2.50;;
2173;SDS011;1093;51.424;11.764;2022-10-16T03:49:25;2.40;;;2.20;;
2173;SDS011;1093;51.424;11.764;2022-10-16T03:51:52;3.30;;;1.73;;
2173;SDS011;1093;51.424;11.764;2022-10-16T03:54:19;3.73;;;2.27;;
2173;SDS011;1093;51.424;11.764;2022-10-16T03:56:47;2.13;;;1.93;;
2173;SDS011;1093;51.424;11.764;2022-10-16T03:59:15;2.17;;;1.97;;
2173;SDS011;1093;51.424;11.764;2022-10-16T04:01:42;2.47;;;2.37;;
2173;SDS011;1093;51.424;11.764;2022-10-16T04:04:09;2.37;;;2.17;;
2173;SDS011;1093;51.424;11.764;2022-10-16T04:06:35;2.30;;;2.17;;
2173;SDS011;1093;51.424;11.764;2022-10-16T04:09:02;3.20;;;2.20;;
2173;SDS011;1093;51.424;11.764;2022-10-16T04:11:29;3.40;;;2.50;;
2173;SDS011;1093;51.424;11.764;2022-10-16T04:13:56;2.50;;;2.07;;
2173;SDS011;1093;51.424;11.764;2022-10-16T04:16:24;2.50;;;2.30;;
2173;SDS011;1093;51.424;11.764;2022-10-16T04:18:51;2.10;;;1.90;;
2173;SDS011;1093;51.424;11.764;2022-10-16T04:21:18;2.10;;;2.00;;
2173;SDS011;1093;51.424;11.764;2022-10-16T04:23:45;2.80;;;2.43;;
2173;SDS011;1093;51.424;11.764;2022-10-16T04:26:11;2.23;;;2.10;;
2173;SDS011;1093;51.424;11.764;2022-10-16T04:28:38;2.00;;;1.90;;
2173;SDS011;1093;51.424;11.764;2022-10-16T04:31:05;1.93;;;1.83;;
2173;SDS011;1093;51.424;11.764;2022-10-16T04:33:34;2.60;;;2.40;;
2173;SDS011;1093;51.424;11.764;2022-10-16T04:36:01;2.43;;;2.33;;
2173;SDS011;1093;51.424;11.764;2022-10-16T04:38:30;2.30;;;2.10;;
2173;SDS011;1093;51.424;11.764;2022-10-16T04:40:56;2.67;;;2.50;;
2173;SDS011;1093;51.424;11.764;2022-10-16T04:43:24;3.40;;;2.70;;
2173;SDS011;1093;51.424;11.764;2022-10-16T04:45:51;2.40;;;2.20;;
2173;SDS011;1093;51.424;11.764;2022-10-16T04:48:19;3.00;;;2.70;;
2173;SDS011;1093;51.424;11.764;2022-10-16T04:50:48;4.87;;;2.53;;
2173;SDS011;1093;51.424;11.764;2022-10-16T04:53:15;2.40;;;2.30;;
2173;SDS011;1093;51.424;11.764;2022-10-16T04:55:42;2.70;;;2.50;;
2173;SDS011;1093;51.424;11.764;2022-10-16T04:58:09;2.53;;;2.10;;
2173;SDS011;1093;51.424;11.764;2022-10-16T05:00:36;1.90;;;1.80;;
2173;SDS011;1093;51.424;11.764;2022-10-16T05:03:03;2.60;;;2.10;;
2173;SDS011;1093;51.424;11.764;2022-10-16T05:05:32;2.47;;;2.37;;
2173;SDS011;1093;51.424;11.764;2022-10-16T05:08:00;2.37;;;2.20;;
2173;SDS011;1093;51.424;11.764;2022-10-16T05:10:27;2.50;;;2.40;;
2173;SDS011;1093;51.424;11.764;2022-10-16T05:12:54;2.87;;;2.67;;
2173;SDS011;1093;51.424;11.764;2022-10-16T05:15:21;2.90;;;2.50;;
2173;SDS011;1093;51.424;11.764;2022-10-16T05:17:51;2.83;;;2.33;;
2173;SDS011;1093;51.424;11.764;2022-10-16T05:20:18;3.67;;;3.30;;
2173;SDS011;1093;51.424;11.764;2022-10-16T05:22:45;3.33;;;2.73;;
2173;SDS011;1093;51.424;11.764;2022-10-16T05:25:13;2.70;;;2.50;;
2173;SDS011;1093;51.424;11.764;2022-10-16T05:27:40;2.83;;;2.63;;
2173;SDS011;1093;51.424;11.764;2022-10-16T05:30:07;3.03;;;2.13;;
2173;SDS011;1093;51.424;11.764;2022-10-16T05:32:35;2.60;;;2.50;;
2173;SDS011;1093;51.424;11.764;2022-10-16T05:35:02;3.50;;;2.70;;
2173;SDS011;1093;51.424;11.764;2022-10-16T05:37:29;2.97;;;2.77;;
2173;SDS011;1093;51.424;11.764;2022-10-16T05:39:56;2.63;;;2.43;;
2173;SDS011;1093;51.424;11.764;2022-10-16T05:42:24;2.80;;;2.60;;
2173;SDS011;1093;51.424;11.764;2022-10-16T05:44:51;4.20;;;2.70;;
2173;SDS011;1093;51.424;11.764;2022-10-16T05:47:18;4.40;;;2.60;;
2173;SDS011;1093;51.424;11.764;2022-10-16T05:49:46;2.73;;;2.33;;
2173;SDS011;1093;51.424;11.764;2022-10-16T05:52:12;2.97;;;2.53;;
2173;SDS011;1093;51.424;11.764;2022-10-16T05:54:39;2.73;;;2.20;;
2173;SDS011;1093;51.424;11.764;2022-10-16T05:57:06;2.77;;;2.10;;
2173;SDS011;1093;51.424;11.764;2022-10-16T05:59:34;2.27;;;2.07;;
2173;SDS011;1093;51.424;11.764;2022-10-16T06:02:01;2.20;;;2.00;;
2173;SDS011;1093;51.424;11.764;2022-10-16T06:04:28;2.20;;;2.00;;
2173;SDS011;1093;51.424;11.764;2022-10-16T06:06:57;1.93;;;1.73;;
2173;SDS011;1093;51.424;11.764;2022-10-16T06:09:25;2.43;;;2.23;;
2173;SDS011;1093;51.424;11.764;2022-10-16T06:11:52;2.37;;;2.13;;
2173;SDS011;1093;51.424;11.764;2022-10-16T06:14:19;2.47;;;2.10;;
2173;SDS011;1093;51.424;11.764;2022-10-16T06:16:47;3.30;;;2.30;;
2173;SDS011;1093;51.424;11.764;2022-10-16T06:19:14;5.83;;;2.07;;
2173;SDS011;1093;51.424;11.764;2022-10-16T06:21:41;3.93;;;1.67;;
2173;SDS011;1093;51.424;11.764;2022-10-16T06:24:08;1.90;;;1.80;;
2173;SDS011;1093;51.424;11.764;2022-10-16T06:26:35;2.10;;;1.83;;
2173;SDS011;1093;51.424;11.764;2022-10-16T06:29:03;5.40;;;2.20;;
2173;SDS011;1093;51.424;11.764;2022-10-16T06:31:30;1.80;;;1.70;;
2173;SDS011;1093;51.424;11.764;2022-10-16T06:33:59;2.30;;;1.87;;
2173;SDS011;1093;51.424;11.764;2022-10-16T06:36:27;2.10;;;1.83;;
2173;SDS011;1093;51.424;11.764;2022-10-16T06:38:55;2.00;;;1.90;;
2173;SDS011;1093;51.424;11.764;2022-10-16T06:41:22;1.67;;;1.57;;
2173;SDS011;1093;51.424;11.764;2022-10-16T06:43:50;1.47;;;1.37;;
2173;SDS011;1093;51.424;11.764;2022-10-16T06:46:17;1.77;;;1.67;;
2173;SDS011;1093;51.424;11.764;2022-10-16T06:48:45;1.90;;;1.80;;
2173;SDS011;1093;51.424;11.764;2022-10-16T06:51:15;2.57;;;2.37;;
2173;SDS011;1093;51.424;11.764;2022-10-16T06:53:44;3.77;;;2.40;;
2173;SDS011;1093;51.424;11.764;2022-10-16T06:56:14;2.40;;;2.30;;
2173;SDS011;1093;51.424;11.764;2022-10-16T06:58:43;1.73;;;1.63;;
2173;SDS011;1093;51.424;11.764;2022-10-16T07:01:10;1.60;;;1.50;;
2173;SDS011;1093;51.424;11.764;2022-10-16T07:03:38;3.23;;;1.73;;
2173;SDS011;1093;51.424;11.764;2022-10-16T07:06:07;1.77;;;1.67;;
2173;SDS011;1093;51.424;11.764;2022-10-16T07:08:37;2.97;;;1.87;;
2173;SDS011;1093;51.424;11.764;2022-10-16T07:11:06;1.87;;;1.73;;
2173;SDS011;1093;51.424;11.764;2022-10-16T07:13:34;2.73;;;1.70;;
2173;SDS011;1093;51.424;11.764;2022-10-16T07:16:03;1.73;;;1.60;;
2173;SDS011;1093;51.424;11.764;2022-10-16T07:18:31;3.30;;;1.77;;
2173;SDS011;1093;51.424;11.764;2022-10-16T07:21:02;3.87;;;1.90;;
2173;SDS011;1093;51.424;11.764;2022-10-16T07:23:30;2.40;;;2.20;;
2173;SDS011;1093;51.424;11.764;2022-10-16T07:25:58;2.33;;;1.87;;
2173;SDS011;1093;51.424;11.764;2022-10-16T07:28:26;2.47;;;2.27;;
2173;SDS011;1093;51.424;11.764;2022-10-16T07:30:53;2.33;;;2.13;;
2173;SDS011;1093;51.424;11.764;2022-10-16T07:33:20;3.77;;;2.03;;
2173;SDS011;1093;51.424;11.764;2022-10-16T07:35:48;2.60;;;2.40;;
2173;SDS011;1093;51.424;11.764;2022-10-16T07:38:15;2.17;;;1.97;;
2173;SDS011;1093;51.424;11.764;2022-10-16T07:40:42;2.00;;;1.90;;
2173;SDS011;1093;51.424;11.764;2022-10-16T07:43:10;1.83;;;1.73;;
2173;SDS011;1093;51.424;11.764;2022-10-16T07:45:37;1.83;;;1.73;;
2173;SDS011;1093;51.424;11.764;2022-10-16T07:48:12;1.90;;;1.80;;
2173;SDS011;1093;51.424;11.764;2022-10-16T07:50:39;1.67;;;1.57;;
2173;SDS011;1093;51.424;11.764;2022-10-16T07:53:06;1.80;;;1.70;;
2173;SDS011;1093;51.424;11.764;2022-10-16T07:55:33;2.63;;;1.90;;
2173;SDS011;1093;51.424;11.764;2022-10-16T07:58:00;2.40;;;1.83;;
2173;SDS011;1093;51.424;11.764;2022-10-16T08:00:28;1.77;;;1.67;;
2173;SDS011;1093;51.424;11.764;2022-10-16T08:02:56;2.63;;;2.00;;
2173;SDS011;1093;51.424;11.764;2022-10-16T08:05:25;1.60;;;1.50;;
2173;SDS011;1093;51.424;11.764;2022-10-16T08:07:52;1.73;;;1.63;;
2173;SDS011;1093;51.424;11.764;2022-10-16T08:10:19;1.67;;;1.57;;
2173;SDS011;1093;51.424;11.764;2022-10-16T08:12:47;2.60;;;2.17;;
2173;SDS011;1093;51.424;11.764;2022-10-16T08:15:14;2.10;;;1.87;;
2173;SDS011;1093;51.424;11.764;2022-10-16T08:17:43;2.07;;;1.97;;
2173;SDS011;1093;51.424;11.764;2022-10-16T08:20:10;1.70;;;1.60;;
2173;SDS011;1093;51.424;11.764;2022-10-16T08:22:37;2.93;;;1.70;;
2173;SDS011;1093;51.424;11.764;2022-10-16T08:25:04;2.30;;;1.50;;
2173;SDS011;1093;51.424;11.764;2022-10-16T08:27:31;1.50;;;1.40;;
2173;SDS011;1093;51.424;11.764;2022-10-16T08:29:59;2.50;;;1.40;;
2173;SDS011;1093;51.424;11.764;2022-10-16T08:32:25;1.40;;;1.30;;
2173;SDS011;1093;51.424;11.764;2022-10-16T08:34:54;1.67;;;1.20;;
2173;SDS011;1093;51.424;11.764;2022-10-16T08:37:21;1.33;;;1.23;;
2173;SDS011;1093;51.424;11.764;2022-10-16T08:39:48;1.63;;;1.40;;
2173;SDS011;1093;51.424;11.764;2022-10-16T08:42:20;1.87;;;1.77;;
2173;SDS011;1093;51.424;11.764;2022-10-16T08:45:02;3.57;;;2.27;;
2173;SDS011;1093;51.424;11.764;2022-10-16T08:47:46;1.50;;;1.40;;
2173;SDS011;1093;51.424;11.764;2022-10-16T08:50:18;1.93;;;1.40;;
2173;SDS011;1093;51.424;11.764;2022-10-16T08:52:50;1.33;;;1.10;;
2173;SDS011;1093;51.424;11.764;2022-10-16T08:55:22;5.30;;;1.57;;
2173;SDS011;1093;51.424;11.764;2022-10-16T08:57:59;2.07;;;1.03;;
2173;SDS011;1093;51.424;11.764;2022-10-16T09:00:26;1.10;;;1.00;;
2173;SDS011;1093;51.424;11.764;2022-10-16T09:02:56;1.10;;;0.93;;
2173;SDS011;1093;51.424;11.764;2022-10-16T09:08:36;1.20;;;0.80;;
2173;SDS011;1093;51.424;11.764;2022-10-16T09:11:13;2.20;;;1.10;;
2173;SDS011;1093;51.424;11.764;2022-10-16T09:13:48;1.53;;;1.37;;
2173;SDS011;1093;51.424;11.764;2022-10-16T09:16:22;1.00;;;0.80;;
2173;SDS011;1093;51.424;11.764;2022-10-16T09:18:55;1.03;;;0.90;;
2173;SDS011;1093;51.424;11.764;2022-10-16T09:21:28;1.47;;;0.87;;
2173;SDS011;1093;51.424;11.764;2022-10-16T09:23:58;2.10;;;0.90;;
2173;SDS011;1093;51.424;11.764;2022-10-16T09:26:33;1.33;;;1.00;;
2173;SDS011;1093;51.424;11.764;2022-10-16T09:28:59;1.83;;;0.90;;
2173;SDS011;1093;51.424;11.764;2022-10-16T09:31:26;1.40;;;0.80;;
2173;SDS011;1093;51.424;11.764;2022-10-16T09:33:54;1.20;;;1.10;;
2173;SDS011;1093;51.424;11.764;2022-10-16T09:36:24;1.00;;;0.90;;
2173;SDS011;1093;51.424;11.764;2022-10-16T09:39:03;1.70;;;0.90;;
2173;SDS011;1093;51.424;11.764;2022-10-16T09:41:33;1.13;;;0.87;;
2173;SDS011;1093;51.424;11.764;2022-10-16T09:44:02;1.20;;;1.07;;
2173;SDS011;1093;51.424;11.764;2022-10-16T09:46:31;0.80;;;0.60;;
2173;SDS011;1093;51.424;11.764;2022-10-16T09:49:00;1.40;;;1.30;;
2173;SDS011;1093;51.424;11.764;2022-10-16T09:51:29;2.17;;;0.90;;
2173;SDS011;1093;51.424;11.764;2022-10-16T09:53:58;1.43;;;0.73;;
2173;SDS011;1093;51.424;11.764;2022-10-16T09:56:29;0.80;;;0.67;;
2173;SDS011;1093;51.424;11.764;2022-10-16T09:58:59;0.90;;;0.90;;
2173;SDS011;1093;51.424;11.764;2022-10-16T10:01:29;1.23;;;0.80;;
2173;SDS011;1093;51.424;11.764;2022-10-16T10:04:01;1.43;;;1.00;;
2173;SDS011;1093;51.424;11.764;2022-10-16T10:06:29;2.00;;;0.97;;
2173;SDS011;1093;51.424;11.764;2022-10-16T10:08:59;1.00;;;0.90;;
2173;SDS011;1093;51.424;11.764;2022-10-16T10:11:41;1.20;;;1.10;;
2173;SDS011;1093;51.424;11.764;2022-10-16T10:14:15;1.47;;;0.70;;
2173;SDS011;1093;51.424;11.764;2022-10-16T10:16:46;1.90;;;1.13;;
2173;SDS011;1093;51.424;11.764;2022-10-16T10:19:14;2.10;;;0.87;;
2173;SDS011;1093;51.424;11.764;2022-10-16T10:21:42;1.03;;;0.93;;
2173;SDS011;1093;51.424;11.764;2022-10-16T10:24:10;1.70;;;1.30;;
2173;SDS011;1093;51.424;11.764;2022-10-16T10:26:39;2.07;;;0.90;;
2173;SDS011;1093;51.424;11.764;2022-10-16T10:29:11;1.70;;;1.60;;
2173;SDS011;1093;51.424;11.764;2022-10-16T10:31:49;0.90;;;0.70;;
2173;SDS011;1093;51.424;11.764;2022-10-16T10:34:26;1.40;;;0.87;;
2173;SDS011;1093;51.424;11.764;2022-10-16T10:37:07;2.90;;;1.30;;
2173;SDS011;1093;51.424;11.764;2022-10-16T10:39:47;0.90;;;0.80;;
2173;SDS011;1093;51.424;11.764;2022-10-16T10:42:22;1.20;;;0.90;;
2173;SDS011;1093;51.424;11.764;2022-10-16T10:45:03;1.43;;;1.17;;
2173;SDS011;1093;51.424;11.764;2022-10-16T10:47:45;1.00;;;0.90;;
2173;SDS011;1093;51.424;11.764;2022-10-16T10:50:23;4.93;;;1.10;;
2173;SDS011;1093;51.424;11.764;2022-10-16T10:52:58;1.67;;;1.00;;
2173;SDS011;1093;51.424;11.764;2022-10-16T10:55:31;4.17;;;1.40;;
2173;SDS011;1093;51.424;11.764;2022-10-16T10:58:13;1.97;;;1.00;;
2173;SDS011;1093;51.424;11.764;2022-10-16T11:01:01;2.87;;;1.10;;
2173;SDS011;1093;51.424;11.764;2022-10-16T11:03:38;1.20;;;0.97;;
2173;SDS011;1093;51.424;11.764;2022-10-16T11:06:22;1.03;;;0.80;;
2173;SDS011;1093;51.424;11.764;2022-10-16T11:08:53;1.30;;;0.93;;
2173;SDS011;1093;51.424;11.764;2022-10-16T11:11:25;1.03;;;0.70;;
2173;SDS011;1093;51.424;11.764;2022-10-16T11:13:59;1.20;;;1.10;;
2173;SDS011;1093;51.424;11.764;2022-10-16T11:16:30;2.63;;;1.40;;
2173;SDS011;1093;51.424;11.764;2022-10-16T11:19:03;0.80;;;0.70;;
2173;SDS011;1093;51.424;11.764;2022-10-16T11:21:39;1.13;;;1.03;;
2173;SDS011;1093;51.424;11.764;2022-10-16T11:24:14;1.20;;;1.10;;
2173;SDS011;1093;51.424;11.764;2022-10-16T11:26:45;5.43;;;1.30;;
2173;SDS011;1093;51.424;11.764;2022-10-16T11:29:17;1.00;;;0.90;;
2173;SDS011;1093;51.424;11.764;2022-10-16T11:31:57;1.20;;;1.10;;
2173;SDS011;1093;51.424;11.764;2022-10-16T11:34:28;1.87;;;1.60;;
2173;SDS011;1093;51.424;11.764;2022-10-16T11:37:02;1.10;;;1.00;;
2173;SDS011;1093;51.424;11.764;2022-10-16T11:39:34;1.07;;;0.93;;
2173;SDS011;1093;51.424;11.764;2022-10-16T11:42:05;1.23;;;1.13;;
2173;SDS011;1093;51.424;11.764;2022-10-16T11:44:42;1.40;;;1.10;;
2173;SDS011;1093;51.424;11.764;2022-10-16T11:47:24;1.70;;;1.20;;
2173;SDS011;1093;51.424;11.764;2022-10-16T11:49:58;1.00;;;0.90;;
2173;SDS011;1093;51.424;11.764;2022-10-16T11:52:30;1.90;;;1.40;;
2173;SDS011;1093;51.424;11.764;2022-10-16T11:55:04;1.60;;;0.93;;
2173;SDS011;1093;51.424;11.764;2022-10-16T11:57:41;1.00;;;0.90;;
2173;SDS011;1093;51.424;11.764;2022-10-16T12:00:17;0.87;;;0.87;;
2173;SDS011;1093;51.424;11.764;2022-10-16T12:02:51;1.30;;;1.20;;
2173;SDS011;1093;51.424;11.764;2022-10-16T12:05:25;1.37;;;1.00;;
2173;SDS011;1093;51.424;11.764;2022-10-16T12:08:01;1.73;;;1.10;;
2173;SDS011;1093;51.424;11.764;2022-10-16T12:10:34;2.00;;;1.13;;
2173;SDS011;1093;51.424;11.764;2022-10-16T12:13:02;1.67;;;0.80;;
2173;SDS011;1093;51.424;11.764;2022-10-16T12:15:32;1.30;;;1.07;;
2173;SDS011;1093;51.424;11.764;2022-10-16T12:17:59;2.60;;;1.30;;
2173;SDS011;1093;51.424;11.764;2022-10-16T12:20:28;2.60;;;0.90;;
2173;SDS011;1093;51.424;11.764;2022-10-16T12:22:58;0.90;;;0.90;;
2173;SDS011;1093;51.424;11.764;2022-10-16T12:25:28;2.10;;;1.00;;
2173;SDS011;1093;51.424;11.764;2022-10-16T12:28:00;1.00;;;0.80;;
2173;SDS011;1093;51.424;11.764;2022-10-16T12:30:29;1.10;;;0.60;;
2173;SDS011;1093;51.424;11.764;2022-10-16T12:33:00;3.03;;;0.80;;
2173;SDS011;1093;51.424;11.764;2022-10-16T12:35:30;0.80;;;0.77;;
2173;SDS011;1093;51.424;11.764;2022-10-16T12:38:08;1.20;;;1.10;;
2173;SDS011;1093;51.424;11.764;2022-10-16T12:40:42;0.80;;;0.80;;
2173;SDS011;1093;51.424;11.764;2022-10-16T12:43:11;1.00;;;0.90;;
2173;SDS011;1093;51.424;11.764;2022-10-16T12:46:00;2.67;;;0.90;;
2173;SDS011;1093;51.424;11.764;2022-10-16T12:48:28;1.00;;;0.80;;
2173;SDS011;1093;51.424;11.764;2022-10-16T12:50:56;1.67;;;1.10;;
2173;SDS011;1093;51.424;11.764;2022-10-16T12:53:23;2.20;;;1.00;;
2173;SDS011;1093;51.424;11.764;2022-10-16T12:55:56;3.70;;;1.13;;
2173;SDS011;1093;51.424;11.764;2022-10-16T13:01:32;1.60;;;1.20;;
2173;SDS011;1093;51.424;11.764;2022-10-16T13:04:10;1.90;;;0.80;;
2173;SDS011;1093;51.424;11.764;2022-10-16T13:06:50;2.20;;;1.37;;
2173;SDS011;1093;51.424;11.764;2022-10-16T13:12:21;0.90;;;0.70;;
2173;SDS011;1093;51.424;11.764;2022-10-16T13:15:07;1.00;;;0.90;;
2173;SDS011;1093;51.424;11.764;2022-10-16T13:17:56;2.07;;;1.07;;
2173;SDS011;1093;51.424;11.764;2022-10-16T13:20:31;2.60;;;0.90;;
2173;SDS011;1093;51.424;11.764;2022-10-16T13:23:05;1.10;;;0.83;;
2173;SDS011;1093;51.424;11.764;2022-10-16T13:25:44;1.73;;;1.10;;
2173;SDS011;1093;51.424;11.764;2022-10-16T13:28:22;0.90;;;0.80;;
2173;SDS011;1093;51.424;11.764;2022-10-16T13:30:57;1.07;;;0.90;;
2173;SDS011;1093;51.424;11.764;2022-10-16T13:33:29;1.37;;;0.90;;
2173;SDS011;1093;51.424;11.764;2022-10-16T13:35:59;0.80;;;0.80;;
2173;SDS011;1093;51.424;11.764;2022-10-16T13:38:27;1.13;;;1.00;;
2173;SDS011;1093;51.424;11.764;2022-10-16T13:40:57;1.40;;;1.00;;
2173;SDS011;1093;51.424;11.764;2022-10-16T13:43:26;2.30;;;1.00;;
2173;SDS011;1093;51.424;11.764;2022-10-16T13:45:56;1.13;;;1.03;;
2173;SDS011;1093;51.424;11.764;2022-10-16T13:48:24;1.17;;;1.00;;
2173;SDS011;1093;51.424;11.764;2022-10-16T13:50:59;1.33;;;1.23;;
2173;SDS011;1093;51.424;11.764;2022-10-16T13:53:29;1.10;;;1.00;;
2173;SDS011;1093;51.424;11.764;2022-10-16T13:55:57;1.30;;;1.00;;
2173;SDS011;1093;51.424;11.764;2022-10-16T13:58:25;1.07;;;0.97;;
2173;SDS011;1093;51.424;11.764;2022-10-16T14:00:53;3.30;;;1.40;;
2173;SDS011;1093;51.424;11.764;2022-10-16T14:03:21;1.20;;;1.00;;
2173;SDS011;1093;51.424;11.764;2022-10-16T14:05:50;1.57;;;1.10;;
2173;SDS011;1093;51.424;11.764;2022-10-16T14:08:20;1.40;;;1.30;;
2173;SDS011;1093;51.424;11.764;2022-10-16T14:10:49;1.77;;;1.20;;
2173;SDS011;1093;51.424;11.764;2022-10-16T14:13:18;1.13;;;0.90;;
2173;SDS011;1093;51.424;11.764;2022-10-16T14:15:49;1.63;;;1.03;;
2173;SDS011;1093;51.424;11.764;2022-10-16T14:18:18;2.30;;;0.97;;
2173;SDS011;1093;51.424;11.764;2022-10-16T14:20:46;1.50;;;1.40;;
2173;SDS011;1093;51.424;11.764;2022-10-16T14:23:19;1.10;;;0.93;;
2173;SDS011;1093;51.424;11.764;2022-10-16T14:25:51;1.67;;;1.00;;
2173;SDS011;1093;51.424;11.764;2022-10-16T14:28:19;1.13;;;0.80;;
2173;SDS011;1093;51.424;11.764;2022-10-16T14:30:50;1.40;;;1.13;;
2173;SDS011;1093;51.424;11.764;2022-10-16T14:33:21;0.97;;;0.97;;
2173;SDS011;1093;51.424;11.764;2022-10-16T14:35:59;0.83;;;0.83;;
2173;SDS011;1093;51.424;11.764;2022-10-16T14:38:30;1.10;;;1.00;;
2173;SDS011;1093;51.424;11.764;2022-10-16T14:40:59;0.80;;;0.80;;
2173;SDS011;1093;51.424;11.764;2022-10-16T14:43:29;1.23;;;1.13;;
2173;SDS011;1093;51.424;11.764;2022-10-16T14:45:59;1.10;;;0.90;;
2173;SDS011;1093;51.424;11.764;2022-10-16T14:48:28;1.50;;;1.10;;
2173;SDS011;1093;51.424;11.764;2022-10-16T14:50:55;1.10;;;0.93;;
2173;SDS011;1093;51.424;11.764;2022-10-16T14:53:22;1.60;;;1.00;;
2173;SDS011;1093;51.424;11.764;2022-10-16T14:55:50;4.97;;;0.97;;
2173;SDS011;1093;51.424;11.764;2022-10-16T14:58:19;1.97;;;0.80;;
2173;SDS011;1093;51.424;11.764;2022-10-16T15:00:47;2.70;;;1.23;;
2173;SDS011;1093;51.424;11.764;2022-10-16T15:03:15;2.33;;;1.30;;
2173;SDS011;1093;51.424;11.764;2022-10-16T15:05:42;1.10;;;1.00;;
2173;SDS011;1093;51.424;11.764;2022-10-16T15:08:09;1.10;;;0.97;;
2173;SDS011;1093;51.424;11.764;2022-10-16T15:10:38;1.10;;;1.00;;
2173;SDS011;1093;51.424;11.764;2022-10-16T15:13:08;1.13;;;1.03;;
2173;SDS011;1093;51.424;11.764;2022-10-16T15:15:37;0.80;;;0.70;;
2173;SDS011;1093;51.424;11.764;2022-10-16T15:18:06;0.80;;;0.70;;
2173;SDS011;1093;51.424;11.764;2022-10-16T15:20:34;2.20;;;1.00;;
2173;SDS011;1093;51.424;11.764;2022-10-16T15:23:03;1.13;;;0.90;;
2173;SDS011;1093;51.424;11.764;2022-10-16T15:25:34;1.20;;;1.10;;